Flight Track Log - Related Links

Times and Time Zones

All times are in EDT time to prevent confusion due to time zone crossing. See the SNC1612 flight status page for this flight to view local times or setup timezone preferences in your user account.

Time Position Orientation Groundspeed Altitude Reporting Facility
EDT Latitude Longitude Course Direction KTS MPH feet Rate Location/Type
Tue 05:21:54 AM 38.1500 -85.6667 317° Northwest 156 180 2,200  Level Louisville TRACON
Tue 05:22:36 AM 38.1753 -85.6783 340° North 127 146 2,600 524 Climbing Indianapolis Center
Tue 05:23:37 AM 38.2108 -85.7069 328° Northwest 160 184 3,100 595 Climbing Indianapolis Center
Tue 05:24:37 AM 38.2444 -85.7439 319° Northwest 161 185 3,800 645 Climbing Indianapolis Center
Tue 05:25:38 AM 38.2744 -85.7811 316° Northwest 156 180 4,400 590 Climbing Indianapolis Center
Tue 05:26:00 AM 38.3816 -85.9649 322° Northwest  Level FlightAware Approximate
Tue 05:26:39 AM 38.3061 -85.8169 318° Northwest 154 177 5,000  Level Indianapolis Center
Tue 05:27:00 AM 38.4172 -86.0037 317° Northwest  Level FlightAware Approximate
Tue 05:27:39 AM 38.3378 -85.8539 318° Northwest 153 176 5,500  Level Indianapolis Center
Tue 05:28:40 AM 38.3703 -85.8919 317° Northwest 156 180 6,000 639 Climbing Indianapolis Center
Tue 05:29:41 AM 38.4022 -85.9325 315° West 159 183 6,800 694 Climbing Indianapolis Center
Tue 05:30:41 AM 38.4292 -85.9792 306° West 162 186 7,400 545 Climbing Indianapolis Center
Tue 05:31:42 AM 38.4553 -86.0228 307° West 158 182 7,900 347 Climbing Indianapolis Center
Tue 05:32:42 AM 38.4806 -86.0725 303° West 163 188 8,100 99 Climbing Indianapolis Center
Tue 05:33:43 AM 38.5114 -86.1283 305° West 181 208 8,100  Level Indianapolis Center
Tue 05:34:44 AM 38.5422 -86.1850 305° West 191 220 8,100  Level Indianapolis Center
Tue 05:35:44 AM 38.5733 -86.2417 305° West 194 223 8,100  Level Indianapolis Center
Tue 05:36:45 AM 38.6072 -86.2947 309° West 193 222 8,100  Level Indianapolis Center
Tue 05:37:45 AM 38.6378 -86.3517 304° West 194 223 8,100  Level Indianapolis Center
Tue 05:38:46 AM 38.6722 -86.4039 310° West 193 222 8,100 -50 Level Indianapolis Center
Tue 05:39:46 AM 38.7094 -86.4556 313° West 193 222 8,000  Descending Indianapolis Center
Tue 05:40:47 AM 38.7453 -86.5072 312° West 194 223 8,100 49 Climbing Indianapolis Center
Tue 05:41:48 AM 38.7831 -86.5589 313° West 196 226 8,100 -50 Level Indianapolis Center
Tue 05:42:48 AM 38.8264 -86.6003 323° Northwest 196 226 8,000  Descending Indianapolis Center
Tue 05:43:49 AM 38.8686 -86.6442 321° Northwest 194 223 8,100 50 Climbing Indianapolis Center
Tue 05:44:49 AM 38.9203 -86.6961 322° Northwest 196 226 8,100  Level Indianapolis Center
Tue 05:45:50 AM 38.9644 -86.7353 325° Northwest 195 224 8,100  Level Indianapolis Center
Tue 05:46:51 AM 39.0094 -86.7750 326° Northwest 195 224 8,100  Level Indianapolis Center
Tue 05:47:51 AM 39.0503 -86.8200 319° Northwest 194 223 8,100  Level Indianapolis Center
Tue 05:48:52 AM 39.0925 -86.8642 321° Northwest 195 224 8,100  Level Indianapolis Center
Tue 05:49:52 AM 39.1353 -86.9083 321° Northwest 197 227 8,100  Level Indianapolis Center
Tue 05:50:53 AM 39.1775 -86.9481 324° Northwest 195 224 8,100  Level Indianapolis Center
Tue 05:51:54 AM 39.2186 -86.9925 320° Northwest 194 223 8,100  Level Indianapolis Center
Tue 05:52:54 AM 39.2650 -87.0267 330° Northwest 195 224 8,100  Level Indianapolis Center
Tue 05:53:55 AM 39.3111 -87.0631 329° Northwest 195 224 8,100  Level Indianapolis Center
Tue 05:54:55 AM 39.3517 -87.1075 320° Northwest 192 221 8,100  Level Indianapolis Center
Tue 05:55:56 AM 39.3894 -87.1539 317° Northwest 191 220 8,100  Level Indianapolis Center
Tue 05:56:56 AM 39.4289 -87.1958 321° Northwest 186 214 8,100  Level Indianapolis Center
Tue 05:57:57 AM 39.4722 -87.2336 326° Northwest 187 215 8,100  Level Indianapolis Center
Tue 05:58:58 AM 39.5119 -87.2747 321° Northwest 185 213 8,100  Level Indianapolis Center
Tue 05:59:58 AM 39.5161 -87.3406 275° West 186 214 8,100  Level Indianapolis Center
Tue 06:00:59 AM 39.5236 -87.4047 279° West 182 209 8,100  Level Indianapolis Center
Tue 06:01:59 AM 39.5339 -87.4686 282° West 181 208 8,100  Level Indianapolis Center
Tue 06:03:00 AM 39.5422 -87.5322 280° West 181 208 8,100  Level Indianapolis Center
Tue 06:04:00 AM 39.5519 -87.5967 281° West 181 208 8,100 -50 Level Indianapolis Center
Tue 06:05:01 AM 39.5617 -87.6736 279° West 181 208 8,000  Descending Indianapolis Center
Tue 06:06:02 AM 39.5769 -87.7364 288° West 182 209 8,100 50 Climbing Indianapolis Center
Tue 06:07:02 AM 39.5906 -87.7972 286° West 179 206 8,100  Level Indianapolis Center
Tue 06:08:03 AM 39.6050 -87.8594 287° West 180 207 8,100  Level Indianapolis Center
Tue 06:09:03 AM 39.6194 -87.9217 287° West 181 208 8,100  Level Indianapolis Center
Tue 06:10:04 AM 39.6325 -87.9847 285° West 181 208 8,100  Level Indianapolis Center
Tue 06:11:05 AM 39.6342 -88.0483 272° West 179 206 8,100 -50 Level Indianapolis Center
Tue 06:12:05 AM 39.6306 -88.1131 266° West 180 207 8,000 -298 Descending Indianapolis Center
Tue 06:13:06 AM 39.6464 -88.1769 288° West 185 213 7,500 -545 Descending Indianapolis Center
Tue 06:14:06 AM 39.6692 -88.2358 297° West 187 215 6,900 -725 Descending Indianapolis Center
Tue 06:16:08 AM 39.7483 -88.3408 314° West 203 234 5,300 -593 Descending Chicago Center
Tue 06:17:08 AM 39.7831 -88.3997 308° West 205 236 5,100 -149 Descending Chicago Center
Tue 06:18:09 AM 39.8217 -88.4436 319° Northwest 194 223 5,000  Descending Chicago Center
Tue 06:19:10 AM 39.8631 -88.4850 322° Northwest 188 216 5,100 50 Climbing Chicago Center
Tue 06:20:10 AM 39.9103 -88.5403 318° Northwest 189 217 5,100 -446 Level Chicago Center
Tue 06:21:11 AM 39.9300 -88.6003 293° West 188 216 4,200 -885 Descending Chicago Center
Tue 06:22:12 AM 39.9239 -88.6606 262° West 190 219 3,300 -595 Descending Chicago Center
Tue 06:23:12 AM 39.9083 -88.7042 245° Southwest 180 207 3,000 -300 Descending Chicago Center

Login

Don't have an account? Register now (free) for customized features, flight alerts, and more!